• Join FlightAware (Why Join?)
  • Login
  • US Flag 
02:46PM EST


 

Airport Tracker/Info


-or-


 

Live Flight TrackerFlight Track Log ✈ EJA396 ✈ 20-Jun-2013 ✈ KBOS - KCAK

Flight Track Log - Related Links

Times and Time Zones

All times are in EDT time to prevent confusion due to time zone crossing. See the EJA396 flight status page for this flight to view local times or setup timezone preferences in your user account.

Time Position Orientation Groundspeed Altitude Reporting Facility
EDT Latitude Longitude Course Direction KTS MPH feet Rate Location/Type
01:49PM 42.3667 -70.9333 304° West 224 258 3,300  Level KA90
01:50PM 42.3833 -70.8333 77° East 274 315 7,200 3,240 Climbing KA90
01:52PM 42.4506 -70.7686 35° Northeast 306 352 10,300 2,940 Climbing Boston Center
01:53PM 42.5219 -70.8089 337° Northwest 272 313 13,600 2,760 Climbing Boston Center
01:54PM 42.5733 -70.9036 306° West 268 308 15,900 2,160 Climbing Boston Center
01:55PM 42.7464 -71.1929 304° West  Level FlightAware Approximate
01:55PM 42.6333 -71.0150 306° West 317 365 18,000  Level Boston Center
01:56PM 42.6864 -71.1097 307° West 349 402 19,000 1,500 Climbing Boston Center
01:57PM 42.7481 -71.2158 308° West 354 407 21,100 2,520 Climbing Boston Center
01:58PM 42.7953 -71.3367 298° West 360 414 24,100 3,000 Climbing Boston Center
01:59PM 42.8339 -71.4547 294° West 354 407 27,100 3,000 Climbing Boston Center
02:00PM 42.8639 -71.5847 288° West 338 389 30,100 2,400 Climbing Boston Center
02:01PM 42.8878 -71.7061 285° West 338 389 31,900 1,740 Climbing Boston Center
02:02PM 42.8989 -71.8392 277° West 343 395 33,600 1,620 Climbing Boston Center
02:03PM 42.9100 -71.9725 277° West 350 403 35,200 1,440 Climbing Boston Center
02:04PM 42.9231 -72.1056 278° West 355 409 36,500 1,260 Climbing Boston Center
02:05PM 42.9317 -72.2417 275° West 360 414 37,800 1,200 Climbing Boston Center
02:06PM 42.9444 -72.3664 278° West 367 422 39,000 1,080 Climbing Boston Center
02:07PM 42.9528 -72.4997 275° West 367 422 40,000 480 Climbing Boston Center
02:08PM 42.9589 -72.6472 273° West 362 417 40,000  Level Boston Center
02:09PM 42.9689 -72.7892 276° West 367 422 40,000  Level Boston Center
02:10PM 42.9808 -72.9339 276° West 374 430 40,000  Level Boston Center
02:11PM 42.9906 -73.0675 276° West 386 444 40,000  Level Boston Center
02:12PM 43.0019 -73.2264 276° West 386 444 40,000  Level Boston Center
02:13PM 43.0114 -73.3572 276° West 386 444 40,000  Level Boston Center
02:14PM 43.0167 -73.4992 273° West 386 444 40,000  Level Boston Center
02:15PM 43.0256 -73.6442 275° West 386 444 40,000  Level Boston Center
02:16PM 43.0344 -73.7894 275° West 386 444 40,000  Level Boston Center
02:17PM 43.0450 -73.9400 276° West 386 444 40,000  Level Boston Center
02:18PM 43.0533 -74.0881 274° West 391 450 40,000  Level Boston Center
02:19PM 43.0614 -74.2361 274° West 391 450 40,000  Level Boston Center
02:20PM 43.0714 -74.3869 275° West 391 450 40,000  Level Boston Center
02:21PM 43.0792 -74.5381 274° West 396 456 40,000  Level Boston Center
02:22PM 43.0744 -74.6883 268° West 402 463 40,000  Level Boston Center
02:23PM 43.0092 -74.8194 236° Southwest 395 455 40,000  Level Boston Center
02:24PM 42.9314 -74.9442 230° Southwest 412 474 40,000  Level Boston Center
02:25PM 42.8383 -75.0906 229° Southwest 425 489 40,000  Level Boston Center
02:26PM 42.7606 -75.2117 229° Southwest 435 501 40,000  Level Boston Center
02:28PM 42.5872 -75.4875 230° Southwest 425 489 40,000  Level New York Center
02:29PM 42.5117 -75.6086 230° Southwest 425 489 40,000  Level New York Center
02:30PM 42.4503 -75.7389 237° Southwest 425 489 40,000  Level New York Center
02:31PM 42.4211 -75.8856 255° West 408 470 40,000  Level New York Center
02:32PM 42.3919 -76.0292 255° West 408 470 40,000  Level New York Center
02:33PM 42.3625 -76.1728 255° West 401 461 40,000  Level New York Center
02:34PM 42.3331 -76.3161 255° West 401 461 40,000  Level New York Center
02:35PM 42.3014 -76.4592 253° West 401 461 40,000  Level New York Center
02:36PM 42.2622 -76.6633 256° West 414 476 40,000  Level Cleveland Center
02:37PM 42.2314 -76.8028 253° West 414 476 40,000  Level Cleveland Center
02:38PM 42.2006 -76.9475 254° West 409 471 40,000  Level Cleveland Center
02:39PM 42.1678 -77.1008 254° West 398 458 40,000  Level Cleveland Center
02:40PM 42.1367 -77.2425 254° West 398 458 40,000  Level Cleveland Center
02:41PM 42.1075 -77.3867 255° West 398 458 40,000  Level Cleveland Center
02:42PM 42.0756 -77.5256 253° West 398 458 40,000  Level Cleveland Center
02:43PM 42.0356 -77.6672 249° West 398 458 40,000  Level Cleveland Center
02:44PM 41.9994 -77.8031 250° West 404 465 40,000  Level Cleveland Center
02:45PM 41.9631 -77.9414 251° West 404 465 40,000  Level Cleveland Center
02:46PM 41.9225 -78.0825 249° West 404 465 40,000  Level Cleveland Center
02:47PM 41.8853 -78.2069 248° West 404 465 40,000  Level Cleveland Center
02:48PM 41.8467 -78.3475 250° West 404 465 40,000 -600 Level Cleveland Center
02:49PM 41.8053 -78.4856 248° West 409 471 38,900 -1,260 Descending Cleveland Center
02:50PM 41.7661 -78.6317 250° West 409 471 37,500 -1,740 Descending Cleveland Center
02:52PM 41.7175 -78.7556 242° Southwest  Level FlightAware Approximate
02:52PM 41.6792 -78.9317 242° Southwest 415 478 33,700  Level Cleveland Center
02:53PM 41.6353 -79.0772 248° West 415 478 31,700 -2,040 Descending Cleveland Center
02:54PM 41.5914 -79.2256 248° West 415 478 29,700 -1,860 Descending Cleveland Center
02:55PM 41.5492 -79.3761 250° West 427 491 28,000 -1,200 Descending Cleveland Center
02:56PM 41.5047 -79.5183 247° West 427 491 27,300 -1,320 Descending Cleveland Center
02:57PM 41.4644 -79.6606 249° West 427 491 25,400 -1,680 Descending Cleveland Center
02:58PM 41.4236 -79.7967 248° West 415 478 24,000 -1,260 Descending Cleveland Center
02:59PM 41.3828 -79.9328 248° West 410 472 22,900 -1,500 Descending Cleveland Center
03:00PM 41.3458 -80.0494 247° West 399 459 21,100 -1,920 Descending Cleveland Center
03:01PM 41.3089 -80.1769 249° West 387 445 19,100 -1,980 Descending Cleveland Center
03:02PM 41.2697 -80.3042 248° West 381 438 17,200 -2,400 Descending Cleveland Center
03:03PM 41.2283 -80.4422 248° West 376 433 14,400 -2,400 Descending Cleveland Center
03:04PM 41.1928 -80.5500 246° West 365 420 12,500 -1,200 Descending Cleveland Center
03:05PM 41.1594 -80.6658 249° West 350 403 12,000 -900 Descending Cleveland Center
03:06PM 41.1239 -80.7733 246° West 342 394 10,700 -1,500 Descending Cleveland Center
03:07PM 41.0944 -80.8697 248° West 308 354 9,000 -900 Descending Cleveland Center
03:08PM 41.0692 -80.9578 249° West 287 330 9,000 -60 Level Cleveland Center
03:09PM 41.0356 -81.0647 247° West 274 315 8,900 -1,320 Descending Cleveland Center
03:10PM 40.9997 -81.1500 241° Southwest 279 321 6,400 -2,220 Descending Cleveland Center
03:11PM 40.9556 -81.2319 235° Southwest 272 313 4,500 -1,620 Descending Cleveland Center
03:12PM 40.9175 -81.3058 236° Southwest 270 311 3,200 -900 Descending Cleveland Center
03:13PM 40.8836 -81.3686 234° Southwest 238 274 2,800 -600 Descending Cleveland Center
03:14PM 40.8769 -81.4233 261° West 176 203 2,100 -660 Descending Cleveland Center
03:15PM 40.9019 -81.4431 329° Northwest 120 138 1,500 1,440 Descending Cleveland Center
03:16PM 40.9378 -81.3803 53° Northeast 126 145 5,000 3,480 Climbing Cleveland Center
03:18PM 40.9000 -81.4333 237° Southwest  Level FlightAware Approximate
03:25PM 40.9151 -81.4436 237° Southwest  Level Estimated